Guilin, Guangxi

9:55 PM CST on March 29, 2015 (GMT +0800)
Liangjiang | | Change Station
CLOSE
Current Station
Airport
Location: Guilin,
Elevation: 545 ft
Nearby Weather Stations

Elev 545 ft 25.33 °N, 110.30 °E | Updated 55 minutes ago

Light Rain
Light Rain Fog
66 °F
Feels Like 66 °F
N
2
Wind Variable Wind from Variable

Today
High -- | Low -- °F
--% Chance of Precip.
Yesterday
High -- | Low -- °F
Precip. -- in
6:35 AM 6:54 PM
Waxing Gibbous, 71% visible
Pressure 29.89 in
Visibility 0.4 miles
Clouds Scattered Clouds 2600 ft
Overcast 4000 ft
Dew Point 64 °F
Humidity 94%
Rainfall 0.00 in
Snow Depth Not available.
UV 0 out of 12
Pollen Not available.
Air Quality Not available.
Flu Activity Not available.
METAR ZGKL 291300Z VRB01MPS 0700 R19/1300 -RA FG SCT026 OVC040 19/18 Q1012 NOSIG

More Conditions Fewer Conditions

Pressure 29.89 in
Visibility 0.4 miles
Clouds Scattered Clouds 2600 ft
Overcast 4000 ft
Dew Point 64 °F
Humidity 94%
Rainfall 0.00 in
Snow Depth Not available.
UV 0 out of 12
Pollen Not available.
Air Quality Not available.
Flu Activity Not available.
METAR ZGKL 291300Z VRB01MPS 0700 R19/1300 -RA FG SCT026 OVC040 19/18 Q1012 NOSIG

More Conditions Fewer Conditions

10-Day Weather Forecast

Almanac

Astronomy

Mar. 29, 2015 Rise Set
Actual Time
Civil Twilight
Nautical Twilight
Astronomical Twilight
Moon
Length of Visible Light
Length of Day
Tomorrow will be .
, % of the Moon is Illuminated

Today's Extremes

Country Highs Country Lows

Community

WunderPhotos

Upload Photos

1,809,234 photos uploaded!

WunderBlogs® & News

Nearby

Air Quality

  Air Quality AQ Index Pollutant
Not available.

Snow Depth

Station Depth Elevation

Earthquake Activity

City Distance Mag. Time & Date
Minimum magnitude displayed is 2.5.

Coastal Water Temperatures

Place Temperature

Stations

Nearby Weather Stations

Station Location Temp. Windchill Dew Point Humidity Wind Precip. Elev Updated Type